Sanders, Arizona
Current Conditions -  °F | °C
As of 1:53 AM on Sunday 26 Oct 2014 (Local Time) from KRQE Reporting Station
Clear Clear  
Wind Chill: 49°   Ceiling: Unl
Heat Index: 49°   Visibility: 10mi
Dew Point: 39°   Wind: 3mph
Humidity: 69%   Direction: 230°SW
Pressure: 30.23"   Gusts: NA
Location:  35.22°N, 109.34°W
Report Text: KRQE 260853Z AUTO 23003KT 10SM CLR 09/04 A3023 RMK AO2 SLP136 T00940039 56011 TSNO
Loading
Personal Weather Stations






























Interactive Weather Map
Tropical Storm Tracking
New forecast layout! Learn more

10-Day Weather Forecast

Advertisements
Track Severe Weather on mobile